createdAt,value
2018-10-03T00:00:15.923Z,100.00
2018-10-03T00:02:44.237Z,100.00
2018-10-03T00:05:12.553Z,100.00
2018-10-03T00:07:41.454Z,100.00
2018-10-03T00:10:09.189Z,100.00
2018-10-03T00:12:37.513Z,100.00
2018-10-03T00:15:05.834Z,100.00
2018-10-03T00:17:34.748Z,100.00
2018-10-03T00:20:03.106Z,100.00
2018-10-03T00:22:30.857Z,100.00
2018-10-03T00:24:59.186Z,100.00
2018-10-03T00:27:27.510Z,100.00
2018-10-03T00:29:56.419Z,100.00
2018-10-03T00:32:24.163Z,100.00
2018-10-03T00:34:53.049Z,100.00
2018-10-03T00:37:20.800Z,100.00
2018-10-03T00:39:51.318Z,100.00
2018-10-03T00:42:18.398Z,100.00
2018-10-03T00:44:46.165Z,100.00
2018-10-03T00:47:15.082Z,100.00
2018-10-03T00:49:43.405Z,100.00
2018-10-03T00:52:11.170Z,100.00
2018-10-03T00:54:39.477Z,100.00
2018-10-03T00:57:07.798Z,100.00
2018-10-03T00:59:36.125Z,100.00
2018-10-03T01:02:04.452Z,100.00
2018-10-03T01:04:33.492Z,100.00
2018-10-03T01:07:02.375Z,100.00
2018-10-03T01:09:30.929Z,100.00
2018-10-03T01:11:59.020Z,100.00
2018-10-03T01:14:27.344Z,100.00
2018-10-03T01:16:55.084Z,100.00
2018-10-03T01:19:24.012Z,100.00
2018-10-03T01:21:52.320Z,100.00
2018-10-03T01:24:20.630Z,100.00
2018-10-03T01:26:48.941Z,100.00
2018-10-03T01:29:17.252Z,100.00
2018-10-03T01:31:45.573Z,100.00
2018-10-03T01:34:13.302Z,100.00
2018-10-03T01:36:42.202Z,100.00
2018-10-03T01:39:10.523Z,100.00
2018-10-03T01:41:38.857Z,100.00
2018-10-03T01:44:06.581Z,100.00
2018-10-03T01:46:35.481Z,100.00
2018-10-03T01:49:03.789Z,100.00
2018-10-03T01:51:32.139Z,100.00
2018-10-03T01:53:59.942Z,100.00
2018-10-03T01:56:28.836Z,100.00
2018-10-03T01:58:56.574Z,100.00
2018-10-03T02:01:25.469Z,100.00
2018-10-03T02:03:53.809Z,100.00
2018-10-03T02:06:21.543Z,100.00
2018-10-03T02:08:49.857Z,100.00
2018-10-03T02:11:18.173Z,100.00
2018-10-03T02:13:47.067Z,100.00
2018-10-03T02:16:15.396Z,100.00
2018-10-03T02:18:43.716Z,100.00
2018-10-03T02:21:11.453Z,100.00
2018-10-03T02:23:40.342Z,100.00
2018-10-03T02:26:08.704Z,100.00
2018-10-03T02:28:37.044Z,100.00
2018-10-03T02:31:05.419Z,100.00
2018-10-03T02:33:33.151Z,100.00
2018-10-03T02:36:02.058Z,100.00
2018-10-03T02:38:30.377Z,100.00
2018-10-03T02:41:00.046Z,100.00
2018-10-03T02:43:27.049Z,100.00
2018-10-03T02:45:55.361Z,100.00
2018-10-03T02:48:23.101Z,100.00
2018-10-03T02:50:51.405Z,100.00
2018-10-03T02:53:20.296Z,100.00
2018-10-03T02:55:48.651Z,100.00
2018-10-03T02:58:16.377Z,100.00
2018-10-03T03:00:44.698Z,100.00
2018-10-03T03:03:13.058Z,100.00
2018-10-03T03:05:42.225Z,100.00
2018-10-03T03:08:09.970Z,100.00
2018-10-03T03:10:38.276Z,100.00
2018-10-03T03:13:07.175Z,100.00
2018-10-03T03:15:34.909Z,100.00
2018-10-03T03:18:03.805Z,100.00
2018-10-03T03:20:31.541Z,100.00
2018-10-03T03:23:00.442Z,100.00
2018-10-03T03:25:28.173Z,100.00
2018-10-03T03:27:57.060Z,100.00
2018-10-03T03:30:25.393Z,100.00
2018-10-03T03:32:55.170Z,100.00
2018-10-03T03:35:22.075Z,100.00
2018-10-03T03:37:49.822Z,100.00
2018-10-03T03:40:18.720Z,100.00
2018-10-03T03:42:46.454Z,100.00
2018-10-03T03:45:14.768Z,100.00
2018-10-03T03:47:43.107Z,100.00
2018-10-03T03:50:11.539Z,100.00
2018-10-03T03:52:39.754Z,100.00
2018-10-03T03:55:08.060Z,100.00
2018-10-03T03:57:36.425Z,100.00
2018-10-03T04:00:04.755Z,100.00
2018-10-03T04:02:33.884Z,100.00
2018-10-03T04:05:01.391Z,100.00
2018-10-03T04:07:30.547Z,100.00
2018-10-03T04:09:59.454Z,100.00
2018-10-03T04:12:27.791Z,100.00
2018-10-03T04:14:56.123Z,100.00
2018-10-03T04:17:23.876Z,100.00
2018-10-03T04:19:52.800Z,100.00
2018-10-03T04:22:21.109Z,100.00
2018-10-03T04:24:48.842Z,100.00
2018-10-03T04:27:17.163Z,100.00
2018-10-03T04:29:45.496Z,100.00
2018-10-03T04:32:13.821Z,100.00
2018-10-03T04:34:42.733Z,100.00
2018-10-03T04:37:10.479Z,100.00
2018-10-03T04:39:39.382Z,100.00
2018-10-03T04:42:08.640Z,100.00
2018-10-03T04:44:36.184Z,100.00
2018-10-03T04:47:04.496Z,100.00
2018-10-03T04:49:32.809Z,100.00
2018-10-03T04:52:00.540Z,100.00
2018-10-03T04:54:28.951Z,100.00
2018-10-03T04:56:57.783Z,100.00
2018-10-03T04:59:25.547Z,100.00
2018-10-03T05:01:54.439Z,100.00
2018-10-03T05:04:22.785Z,100.00
2018-10-03T05:06:51.455Z,100.00
2018-10-03T05:09:19.177Z,100.00
2018-10-03T05:11:48.074Z,100.00
2018-10-03T05:14:16.385Z,100.00
2018-10-03T05:16:44.697Z,100.00
2018-10-03T05:19:12.429Z,100.00
2018-10-03T05:21:41.331Z,100.00
2018-10-03T05:24:09.650Z,100.00
2018-10-03T05:26:37.972Z,100.00
2018-10-03T05:29:06.300Z,100.00
2018-10-03T05:31:34.054Z,100.00
2018-10-03T05:34:02.950Z,100.00
2018-10-03T05:36:31.198Z,100.00
2018-10-03T05:38:59.473Z,100.00
2018-10-03T05:41:27.742Z,100.00
2018-10-03T05:43:56.240Z,100.00
2018-10-03T05:46:24.165Z,100.00
2018-10-03T05:48:52.343Z,100.00
2018-10-03T05:51:20.648Z,100.00
2018-10-03T05:53:49.799Z,100.00
2018-10-03T05:56:17.536Z,100.00
2018-10-03T05:58:46.450Z,100.00
2018-10-03T06:01:14.224Z,100.00
2018-10-03T06:03:43.117Z,100.00
2018-10-03T06:06:11.423Z,100.00
2018-10-03T06:08:39.736Z,100.00
2018-10-03T06:11:08.054Z,100.00
2018-10-03T06:13:36.376Z,100.00
2018-10-03T06:16:04.112Z,100.00
2018-10-03T06:18:32.440Z,100.00
2018-10-03T06:21:01.317Z,100.00
2018-10-03T06:23:29.244Z,100.00
2018-10-03T06:25:57.381Z,100.00
2018-10-03T06:28:27.288Z,100.00
2018-10-03T06:30:54.790Z,100.00
2018-10-03T06:33:23.141Z,100.00
2018-10-03T06:35:52.015Z,100.00
2018-10-03T06:38:20.324Z,100.00
2018-10-03T06:40:48.651Z,100.00
2018-10-03T06:43:16.377Z,100.00
2018-10-03T06:45:44.711Z,100.00
2018-10-03T06:48:13.006Z,100.00
2018-10-03T06:50:41.900Z,100.00
2018-10-03T06:53:09.625Z,100.00
2018-10-03T06:55:38.528Z,100.00
2018-10-03T06:58:06.850Z,100.00
2018-10-03T07:00:34.584Z,100.00
2018-10-03T07:03:03.519Z,100.00
2018-10-03T07:05:31.838Z,100.00
2018-10-03T07:08:00.143Z,100.00
2018-10-03T07:10:28.468Z,100.00
2018-10-03T07:12:56.870Z,100.00
2018-10-03T07:15:25.128Z,100.00
2018-10-03T07:17:53.455Z,100.00
2018-10-03T07:20:21.776Z,100.00
2018-10-03T07:22:50.305Z,100.00
2018-10-03T07:25:18.065Z,100.00
2018-10-03T07:27:46.370Z,100.00
2018-10-03T07:30:15.266Z,100.00
2018-10-03T07:32:43.633Z,100.00
2018-10-03T07:35:11.909Z,100.00
2018-10-03T07:37:40.487Z,100.00
2018-10-03T07:40:08.819Z,100.00
2018-10-03T07:42:36.555Z,100.00
2018-10-03T07:45:05.457Z,100.00
2018-10-03T07:47:33.809Z,100.00
2018-10-03T07:50:02.116Z,100.00
2018-10-03T07:52:30.777Z,100.00
2018-10-03T07:54:58.523Z,100.00
2018-10-03T07:57:27.752Z,100.00
2018-10-03T07:59:57.424Z,100.00
2018-10-03T08:02:25.163Z,100.00
2018-10-03T08:04:54.122Z,100.00
2018-10-03T08:07:22.472Z,100.00
2018-10-03T08:09:50.927Z,100.00
2018-10-03T08:12:19.229Z,100.00
2018-10-03T08:14:47.799Z,100.00
2018-10-03T08:17:15.593Z,100.00
2018-10-03T08:19:43.859Z,100.00
2018-10-03T08:22:12.819Z,100.00
2018-10-03T08:24:41.285Z,100.00
2018-10-03T08:27:08.877Z,100.00
2018-10-03T08:29:37.789Z,100.00
2018-10-03T08:32:06.173Z,100.00
2018-10-03T08:34:33.906Z,100.00
2018-10-03T08:37:02.816Z,100.00
2018-10-03T08:39:31.197Z,100.00
2018-10-03T08:41:59.801Z,100.00
2018-10-03T08:44:27.898Z,100.00
2018-10-03T08:46:56.242Z,100.00
2018-10-03T08:49:24.614Z,100.00
2018-10-03T08:51:52.821Z,100.00
2018-10-03T08:54:21.689Z,99.64
2018-10-03T08:56:49.483Z,99.50
2018-10-03T08:59:18.404Z,99.55
2018-10-03T09:01:46.725Z,99.73
2018-10-03T09:04:15.119Z,100.00
2018-10-03T09:06:43.480Z,100.00
2018-10-03T09:09:11.878Z,99.87
2018-10-03T09:11:40.225Z,99.88
2018-10-03T09:14:07.944Z,100.00
2018-10-03T09:16:36.275Z,99.78
2018-10-03T09:19:04.587Z,100.00
2018-10-03T09:21:32.992Z,99.76
2018-10-03T09:24:01.839Z,98.98
2018-10-03T09:26:30.132Z,99.36
2018-10-03T09:28:57.930Z,99.64
2018-10-03T09:31:27.691Z,99.19
2018-10-03T09:33:55.144Z,99.67
2018-10-03T09:36:23.695Z,99.10
2018-10-03T09:38:51.223Z,98.65
2018-10-03T09:41:20.111Z,97.65
2018-10-03T09:43:48.443Z,97.27
2018-10-03T09:46:16.752Z,96.72
2018-10-03T09:48:44.527Z,96.35
2018-10-03T09:51:13.430Z,94.52
2018-10-03T09:53:41.782Z,95.04
2018-10-03T09:56:09.493Z,95.34
2018-10-03T09:58:38.392Z,94.57
2018-10-03T10:01:06.131Z,93.23
2018-10-03T10:03:35.020Z,92.92
2018-10-03T10:06:03.343Z,93.38
2018-10-03T10:08:31.700Z,92.14
2018-10-03T10:11:00.085Z,92.00
2018-10-03T10:13:28.339Z,92.56
2018-10-03T10:15:56.089Z,90.07
2018-10-03T10:18:24.403Z,90.12
2018-10-03T10:20:53.334Z,91.15
2018-10-03T10:23:21.855Z,90.22
2018-10-03T10:25:49.950Z,88.77
2018-10-03T10:28:18.285Z,87.85
2018-10-03T10:30:46.703Z,91.72
2018-10-03T10:33:15.034Z,88.18
2018-10-03T10:35:43.384Z,88.38
2018-10-03T10:38:11.735Z,89.59
2018-10-03T10:40:39.697Z,88.43
2018-10-03T10:43:08.422Z,90.84
2018-10-03T10:45:36.958Z,92.76
2018-10-03T10:48:05.319Z,92.57
2018-10-03T10:50:33.639Z,89.56
2018-10-03T10:53:02.268Z,85.17
2018-10-03T10:55:30.610Z,87.45
2018-10-03T10:57:58.668Z,87.09
2018-10-03T11:00:26.993Z,83.93
2018-10-03T11:02:55.568Z,83.61
2018-10-03T11:05:23.893Z,82.60
2018-10-03T11:07:51.985Z,82.63
2018-10-03T11:10:19.779Z,83.13
2018-10-03T11:12:52.043Z,82.64
2018-10-03T11:15:16.999Z,85.03
2018-10-03T11:17:45.321Z,84.72
2018-10-03T11:20:13.682Z,83.36
2018-10-03T11:22:42.010Z,84.37
2018-10-03T11:25:09.845Z,83.87
2018-10-03T11:27:38.318Z,82.70
2018-10-03T11:30:07.262Z,81.67
2018-10-03T11:32:36.326Z,83.21
2018-10-03T11:35:04.730Z,82.62
2018-10-03T11:37:33.046Z,80.97
2018-10-03T11:40:01.442Z,82.55
2018-10-03T11:42:30.048Z,81.64
2018-10-03T11:44:58.128Z,83.58
2018-10-03T11:47:28.015Z,84.62
2018-10-03T11:49:56.869Z,79.81
2018-10-03T11:52:25.220Z,80.94
2018-10-03T11:54:53.779Z,82.43
2018-10-03T11:57:21.897Z,81.79
2018-10-03T11:59:50.256Z,83.32
2018-10-03T12:02:18.608Z,81.49
2018-10-03T12:04:46.918Z,79.32
2018-10-03T12:07:15.254Z,81.64
2018-10-03T12:09:42.991Z,78.46
2018-10-03T12:12:11.408Z,79.54
2018-10-03T12:14:40.322Z,79.59
2018-10-03T12:17:08.636Z,79.18
2018-10-03T12:19:36.981Z,76.97
2018-10-03T12:22:06.413Z,77.23
2018-10-03T12:24:33.939Z,76.75
2018-10-03T12:27:03.075Z,76.86
2018-10-03T12:29:31.180Z,74.31
2018-10-03T12:31:58.922Z,73.18
2018-10-03T12:34:27.246Z,73.42
2018-10-03T12:36:55.563Z,73.15
2018-10-03T12:39:24.473Z,73.10
2018-10-03T12:41:52.801Z,73.27
2018-10-03T12:44:21.170Z,72.47
2018-10-03T12:46:48.884Z,71.47
2018-10-03T12:49:17.797Z,71.08
2018-10-03T12:51:47.038Z,70.74
2018-10-03T12:54:15.379Z,68.03
2018-10-03T12:56:43.113Z,68.46
2018-10-03T12:59:12.031Z,68.21
2018-10-03T13:01:40.368Z,67.98
2018-10-03T13:04:08.719Z,68.74
2018-10-03T13:06:37.256Z,67.57
2018-10-03T13:09:05.355Z,64.01
2018-10-03T13:11:33.693Z,61.67
2018-10-03T13:14:02.312Z,62.01
2018-10-03T13:16:29.801Z,62.73
2018-10-03T13:18:58.696Z,62.89
2018-10-03T13:21:27.014Z,63.93
2018-10-03T13:23:55.339Z,64.28
2018-10-03T13:26:23.669Z,64.58
2018-10-03T13:28:52.011Z,64.13
2018-10-03T13:31:20.388Z,63.81
2018-10-03T13:36:42.163Z,64.23
2018-10-03T13:39:10.492Z,62.42
2018-10-03T13:41:39.446Z,63.53
2018-10-03T13:44:07.176Z,64.92
2018-10-03T13:46:35.550Z,65.95
2018-10-03T13:49:04.406Z,66.72
2018-10-03T13:51:32.731Z,66.75
2018-10-03T13:54:00.472Z,67.49
2018-10-03T13:56:29.412Z,67.49
2018-10-03T13:58:57.822Z,67.66
2018-10-03T14:01:26.413Z,67.48
2018-10-03T14:03:54.757Z,66.68
2018-10-03T14:06:23.110Z,67.08
2018-10-03T14:08:51.668Z,66.53
2018-10-03T14:11:20.796Z,65.78
2018-10-03T14:13:48.167Z,65.24
2018-10-03T14:16:16.765Z,65.26
2018-10-03T14:18:45.076Z,65.57
2018-10-03T14:21:12.823Z,61.32
2018-10-03T14:23:41.728Z,56.81
2018-10-03T14:26:10.112Z,58.32
2018-10-03T14:28:38.433Z,59.24
2018-10-03T14:31:06.850Z,59.99
2018-10-03T14:33:36.151Z,61.24
2018-10-03T14:36:03.521Z,61.55
2018-10-03T14:38:31.852Z,61.39
2018-10-03T14:41:00.908Z,61.56
2018-10-03T14:43:28.956Z,61.54
2018-10-03T14:45:57.544Z,61.24
2018-10-03T14:48:26.096Z,61.86
2018-10-03T14:50:54.193Z,62.23
2018-10-03T14:53:22.512Z,62.21
2018-10-03T14:55:50.863Z,62.61
2018-10-03T14:58:19.304Z,62.83
2018-10-03T15:00:47.580Z,62.96
2018-10-03T15:03:15.326Z,62.70
2018-10-03T15:05:43.920Z,63.05
2018-10-03T15:08:13.036Z,62.99
2018-10-03T15:10:41.125Z,63.08
2018-10-03T15:13:09.522Z,63.20
2018-10-03T15:15:37.866Z,63.63
2018-10-03T15:18:05.677Z,63.51
2018-10-03T15:20:34.547Z,63.71
2018-10-03T15:23:02.873Z,63.85
2018-10-03T15:25:31.204Z,63.78
2018-10-03T15:27:59.528Z,64.06
2018-10-03T15:30:27.880Z,64.34
2018-10-03T15:32:56.230Z,64.63
2018-10-03T15:35:23.995Z,64.60
2018-10-03T15:37:52.892Z,64.68
2018-10-03T15:40:20.640Z,64.90
2018-10-03T15:42:49.845Z,65.20
2018-10-03T15:45:17.941Z,65.13
2018-10-03T15:47:46.282Z,65.45
2018-10-03T15:50:14.609Z,65.67
2018-10-03T15:52:42.357Z,65.56
2018-10-03T15:55:11.296Z,65.70
2018-10-03T15:57:39.589Z,65.99
2018-10-03T16:00:07.922Z,66.16
2018-10-03T16:02:36.266Z,66.23
2018-10-03T16:05:04.585Z,66.28
2018-10-03T16:07:32.909Z,66.57
2018-10-03T16:10:00.689Z,66.84
2018-10-03T16:12:29.737Z,67.01
2018-10-03T16:14:58.068Z,67.38
2018-10-03T16:17:26.401Z,67.27
2018-10-03T16:19:54.399Z,67.38
2018-10-03T16:22:23.539Z,67.59
2018-10-03T16:24:51.336Z,67.79
2018-10-03T16:27:20.272Z,67.79
2018-10-03T16:29:48.602Z,67.86
2018-10-03T16:32:17.314Z,68.03
2018-10-03T16:34:45.577Z,68.48
2018-10-03T16:37:13.897Z,68.84
2018-10-03T16:39:41.667Z,69.08
2018-10-03T16:42:10.588Z,68.83
2018-10-03T16:44:38.890Z,68.91
2018-10-03T16:47:06.831Z,69.35
2018-10-03T16:49:36.519Z,69.53
2018-10-03T16:52:04.862Z,69.29
2018-10-03T16:54:33.228Z,69.42
2018-10-03T16:57:01.569Z,69.91
2018-10-03T16:59:30.130Z,69.77
2018-10-03T17:01:58.759Z,69.88
2018-10-03T17:04:27.141Z,70.20
2018-10-03T17:06:55.510Z,70.38
2018-10-03T17:09:23.789Z,70.73
2018-10-03T17:11:52.104Z,70.61
2018-10-03T17:14:20.602Z,70.89
2018-10-03T17:16:48.352Z,71.16
2018-10-03T17:19:17.359Z,71.37
2018-10-03T17:21:46.132Z,71.78
2018-10-03T17:24:14.271Z,72.00
2018-10-03T17:26:42.603Z,72.59
2018-10-03T17:29:10.954Z,72.46
2018-10-03T17:31:38.834Z,72.64
2018-10-03T17:34:07.676Z,73.01
2018-10-03T17:36:36.337Z,73.00
2018-10-03T17:39:04.687Z,73.28
2018-10-03T17:41:32.446Z,73.10
2018-10-03T17:44:01.369Z,73.87
2018-10-03T17:46:29.727Z,74.08
2018-10-03T17:48:57.471Z,74.37
2018-10-03T17:51:25.792Z,74.36
2018-10-03T17:53:54.743Z,73.94
2018-10-03T17:56:23.121Z,73.89
2018-10-03T17:58:51.510Z,73.95
2018-10-03T18:01:19.849Z,74.34
2018-10-03T18:03:48.177Z,74.49
2018-10-03T18:06:16.608Z,74.72
2018-10-03T18:08:45.030Z,75.02
2018-10-03T18:11:13.397Z,75.46
2018-10-03T18:13:42.107Z,75.61
2018-10-03T18:16:10.513Z,75.91
2018-10-03T18:18:38.852Z,76.02
2018-10-03T18:21:07.216Z,76.45
2018-10-03T18:23:35.603Z,76.71
2018-10-03T18:26:04.035Z,76.70
2018-10-03T18:28:32.377Z,76.74
2018-10-03T18:31:00.751Z,76.59
2018-10-03T18:33:29.159Z,76.62
2018-10-03T18:35:57.469Z,78.25
2018-10-03T18:38:25.824Z,77.89
2018-10-03T18:40:53.606Z,76.96
2018-10-03T18:43:22.537Z,77.00
2018-10-03T18:45:50.882Z,77.00
2018-10-03T18:48:19.623Z,76.87
2018-10-03T18:50:47.993Z,77.13
2018-10-03T18:53:16.328Z,76.88
2018-10-03T18:55:44.114Z,77.17
2018-10-03T18:58:13.085Z,76.81
2018-10-03T19:00:41.449Z,76.70
2018-10-03T19:03:10.432Z,76.59
2018-10-03T19:05:39.067Z,76.33
2018-10-03T19:08:07.431Z,76.30
2018-10-03T19:10:36.010Z,76.19
2018-10-03T19:13:04.123Z,76.08
2018-10-03T19:15:32.474Z,75.96
2018-10-03T19:18:00.893Z,75.69
2018-10-03T19:20:29.227Z,75.57
2018-10-03T19:22:57.532Z,75.58
2018-10-03T19:25:26.158Z,75.37
2018-10-03T19:27:55.002Z,75.09
2018-10-03T19:30:23.333Z,74.92
2018-10-03T19:32:51.672Z,74.72
2018-10-03T19:35:19.426Z,74.57
2018-10-03T19:37:47.796Z,74.50
2018-10-03T19:40:16.124Z,74.25
2018-10-03T19:42:45.042Z,73.95
2018-10-03T19:45:12.789Z,73.63
2018-10-03T19:47:41.729Z,73.87
2018-10-03T19:50:10.405Z,73.51
2018-10-03T19:52:38.755Z,73.66
2018-10-03T19:55:07.096Z,73.62
2018-10-03T19:57:35.440Z,73.60
2018-10-03T20:00:03.769Z,73.48
2018-10-03T20:02:32.105Z,73.36
2018-10-03T20:05:00.491Z,72.95
2018-10-03T20:07:28.859Z,73.00
2018-10-03T20:09:56.628Z,72.88
2018-10-03T20:12:25.522Z,72.86
2018-10-03T20:14:54.668Z,72.79
2018-10-03T20:17:23.226Z,72.72
2018-10-03T20:19:51.367Z,72.59
2018-10-03T20:22:19.717Z,72.49
2018-10-03T20:24:48.053Z,72.35
2018-10-03T20:27:16.685Z,72.23
2018-10-03T20:29:45.598Z,71.72
2018-10-03T20:32:13.372Z,71.93
2018-10-03T20:34:43.075Z,71.77
2018-10-03T20:37:10.631Z,71.32
2018-10-03T20:39:38.983Z,70.91
2018-10-03T20:42:06.836Z,70.78
2018-10-03T20:44:35.722Z,70.77
2018-10-03T20:47:03.493Z,70.20
2018-10-03T20:49:32.450Z,70.26
2018-10-03T20:52:00.790Z,70.10
2018-10-03T20:54:29.313Z,70.05
2018-10-03T20:56:57.526Z,69.58
2018-10-03T20:59:25.913Z,69.48
2018-10-03T21:01:54.622Z,69.34
2018-10-03T21:04:22.458Z,69.30
2018-10-03T21:06:51.374Z,69.08
2018-10-03T21:09:19.731Z,68.32
2018-10-03T21:11:47.684Z,68.19
2018-10-03T21:14:15.818Z,68.25
2018-10-03T21:16:44.736Z,68.26
2018-10-03T21:19:13.050Z,68.43
2018-10-03T21:21:40.817Z,68.26
2018-10-03T21:24:09.141Z,68.18
2018-10-03T21:26:37.474Z,68.00
2018-10-03T21:29:05.878Z,67.93
2018-10-03T21:31:35.005Z,68.07
2018-10-03T21:34:03.187Z,67.87
2018-10-03T21:36:31.513Z,67.52
2018-10-03T21:38:59.865Z,67.23
2018-10-03T21:41:28.183Z,67.16
2018-10-03T21:43:56.504Z,66.99
2018-10-03T21:46:24.847Z,66.38
2018-10-03T21:48:53.208Z,66.73
2018-10-03T21:51:20.959Z,66.66
2018-10-03T21:53:49.862Z,66.51
2018-10-03T21:56:18.213Z,66.77
2018-10-03T21:58:46.003Z,66.30
2018-10-03T22:01:14.290Z,66.21
2018-10-03T22:03:42.673Z,66.02
2018-10-03T22:06:11.571Z,65.96
2018-10-03T22:08:40.158Z,65.89
2018-10-03T22:11:07.903Z,65.96
2018-10-03T22:13:36.851Z,65.99
2018-10-03T22:16:05.173Z,65.67
2018-10-03T22:18:32.908Z,65.75
2018-10-03T22:21:01.812Z,65.78
2018-10-03T22:23:30.123Z,65.93
2018-10-03T22:25:58.440Z,66.07
2018-10-03T22:28:26.194Z,66.06
2018-10-03T22:30:55.146Z,66.24
2018-10-03T22:33:23.456Z,66.15
2018-10-03T22:35:51.191Z,66.31
2018-10-03T22:38:19.509Z,66.45
2018-10-03T22:40:48.421Z,66.65
2018-10-03T22:43:16.156Z,66.77
2018-10-03T22:45:45.046Z,66.88
2018-10-03T22:48:13.364Z,67.15
2018-10-03T22:50:41.669Z,67.11
2018-10-03T22:53:10.006Z,67.46
2018-10-03T22:55:37.744Z,67.46
2018-10-03T22:58:06.065Z,67.40
2018-10-03T23:00:34.976Z,67.41
2018-10-03T23:03:03.275Z,67.55
2018-10-03T23:05:31.586Z,67.47
2018-10-03T23:07:59.345Z,67.52
2018-10-03T23:10:28.242Z,67.71
2018-10-03T23:12:56.563Z,67.72
2018-10-03T23:15:24.297Z,67.69
2018-10-03T23:17:53.187Z,67.67
2018-10-03T23:20:24.699Z,67.88
2018-10-03T23:22:49.902Z,67.84
2018-10-03T23:25:18.238Z,67.95
2018-10-03T23:27:47.166Z,68.14
2018-10-03T23:30:15.468Z,68.41
2018-10-03T23:32:43.816Z,68.73
2018-10-03T23:35:11.554Z,68.92
2018-10-03T23:37:39.873Z,69.01
2018-10-03T23:40:08.776Z,69.18
2018-10-03T23:42:37.110Z,69.30
2018-10-03T23:45:05.420Z,69.62
2018-10-03T23:47:33.149Z,69.56
2018-10-03T23:50:01.466Z,69.86
2018-10-03T23:52:30.361Z,69.94
2018-10-03T23:54:58.688Z,70.20
2018-10-03T23:57:27.046Z,70.27
2018-10-03T23:59:55.332Z,70.40
